createdAt,value
2023-03-29T00:01:35.153Z,100.00
2023-03-29T00:04:04.350Z,100.00
2023-03-29T00:06:33.230Z,100.00
2023-03-29T00:09:05.387Z,100.00
2023-03-29T00:11:33.491Z,100.00
2023-03-29T00:14:01.179Z,100.00
2023-03-29T00:16:28.936Z,100.00
2023-03-29T00:18:56.614Z,100.00
2023-03-29T00:21:24.376Z,100.00
2023-03-29T00:23:52.042Z,100.00
2023-03-29T00:26:21.822Z,100.00
2023-03-29T00:28:49.820Z,100.00
2023-03-29T00:31:18.856Z,100.00
2023-03-29T00:33:47.456Z,100.00
2023-03-29T00:36:16.023Z,100.00
2023-03-29T00:38:43.875Z,100.00
2023-03-29T00:41:11.833Z,100.00
2023-03-29T00:43:55.349Z,100.00
2023-03-29T00:46:23.198Z,100.00
2023-03-29T00:48:54.213Z,100.00
2023-03-29T00:51:26.811Z,100.00
2023-03-29T00:53:58.577Z,100.00
2023-03-29T00:56:31.380Z,100.00
2023-03-29T00:59:04.029Z,100.00
2023-03-29T01:01:38.099Z,100.00
2023-03-29T01:04:17.904Z,100.00
2023-03-29T01:06:49.374Z,100.00
2023-03-29T01:09:20.049Z,100.00
2023-03-29T01:11:52.777Z,100.00
2023-03-29T01:14:24.707Z,100.00
2023-03-29T01:16:53.275Z,100.00
2023-03-29T01:19:24.151Z,100.00
2023-03-29T01:21:57.483Z,100.00
2023-03-29T01:24:45.299Z,100.00
2023-03-29T01:27:18.830Z,100.00
2023-03-29T01:29:54.213Z,100.00
2023-03-29T01:32:27.209Z,100.00
2023-03-29T01:34:59.625Z,100.00
2023-03-29T01:37:32.908Z,100.00
2023-03-29T01:40:02.214Z,100.00
2023-03-29T01:42:36.870Z,100.00
2023-03-29T01:45:16.470Z,100.00
2023-03-29T01:47:51.638Z,100.00
2023-03-29T01:50:28.286Z,100.00
2023-03-29T01:52:59.002Z,100.00
2023-03-29T01:55:32.903Z,100.00
2023-03-29T01:58:03.053Z,100.00
2023-03-29T02:00:34.251Z,100.00
2023-03-29T02:03:07.414Z,100.00
2023-03-29T02:05:36.881Z,100.00
2023-03-29T02:08:07.451Z,100.00
2023-03-29T02:10:36.915Z,100.00
2023-03-29T02:13:04.928Z,100.00
2023-03-29T02:15:33.993Z,100.00
2023-03-29T02:18:03.896Z,100.00
2023-03-29T02:20:36.771Z,100.00
2023-03-29T02:23:09.307Z,100.00
2023-03-29T02:25:38.463Z,100.00
2023-03-29T02:28:07.826Z,100.00
2023-03-29T02:30:44.998Z,100.00
2023-03-29T02:33:18.392Z,100.00
2023-03-29T02:35:53.247Z,100.00
2023-03-29T02:38:25.505Z,100.00
2023-03-29T02:40:53.918Z,100.00
2023-03-29T02:43:25.902Z,100.00
2023-03-29T02:45:56.071Z,100.00
2023-03-29T02:48:26.682Z,100.00
2023-03-29T02:50:57.753Z,100.00
2023-03-29T02:53:30.104Z,100.00
2023-03-29T02:55:58.113Z,100.00
2023-03-29T02:58:26.559Z,100.00
2023-03-29T03:00:57.138Z,100.00
2023-03-29T03:03:25.479Z,100.00
2023-03-29T03:05:53.859Z,100.00
2023-03-29T03:08:21.639Z,100.00
2023-03-29T03:10:49.342Z,100.00
2023-03-29T03:13:17.091Z,100.00
2023-03-29T03:15:48.839Z,100.00
2023-03-29T03:18:18.292Z,100.00
2023-03-29T03:20:55.773Z,100.00
2023-03-29T03:23:24.075Z,100.00
2023-03-29T03:25:52.580Z,100.00
2023-03-29T03:28:20.507Z,100.00
2023-03-29T03:30:48.159Z,100.00
2023-03-29T03:33:18.795Z,100.00
2023-03-29T03:35:47.997Z,100.00
2023-03-29T03:38:16.590Z,100.00
2023-03-29T03:40:44.309Z,100.00
2023-03-29T03:43:12.653Z,100.00
2023-03-29T03:45:40.413Z,100.00
2023-03-29T03:48:08.697Z,100.00
2023-03-29T03:50:38.305Z,100.00
2023-03-29T03:53:05.992Z,100.00
2023-03-29T03:55:33.799Z,100.00
2023-03-29T03:58:01.492Z,100.00
2023-03-29T04:00:29.742Z,100.00
2023-03-29T04:02:57.497Z,100.00
2023-03-29T04:05:25.383Z,100.00
2023-03-29T04:07:54.360Z,100.00
2023-03-29T04:10:22.699Z,100.00
2023-03-29T04:12:50.547Z,100.00
2023-03-29T04:15:20.251Z,100.00
2023-03-29T04:17:48.044Z,100.00
2023-03-29T04:20:15.886Z,100.00
2023-03-29T04:22:43.546Z,100.00
2023-03-29T04:25:12.723Z,100.00
2023-03-29T04:27:41.005Z,100.00
2023-03-29T04:30:09.902Z,100.00
2023-03-29T04:32:38.608Z,100.00
2023-03-29T04:35:06.860Z,100.00
2023-03-29T04:37:34.767Z,100.00
2023-03-29T04:40:04.415Z,100.00
2023-03-29T04:42:34.247Z,100.00
2023-03-29T04:45:02.143Z,100.00
2023-03-29T04:47:31.225Z,100.00
2023-03-29T04:49:59.023Z,100.00
2023-03-29T04:52:27.278Z,100.00
2023-03-29T04:54:54.971Z,100.00
2023-03-29T04:57:22.821Z,100.00
2023-03-29T04:59:51.871Z,100.00
2023-03-29T05:02:19.581Z,100.00
2023-03-29T05:04:47.313Z,100.00
2023-03-29T05:07:17.630Z,100.00
2023-03-29T05:09:45.339Z,100.00
2023-03-29T05:12:13.114Z,100.00
2023-03-29T05:14:40.937Z,100.00
2023-03-29T05:17:10.032Z,100.00
2023-03-29T05:19:38.337Z,100.00
2023-03-29T05:22:06.608Z,100.00
2023-03-29T05:24:34.334Z,100.00
2023-03-29T05:27:02.356Z,100.00
2023-03-29T05:29:32.633Z,100.00
2023-03-29T05:32:00.622Z,100.00
2023-03-29T05:34:30.965Z,100.00
2023-03-29T05:36:59.024Z,100.00
2023-03-29T05:39:26.929Z,100.00
2023-03-29T05:41:55.214Z,100.00
2023-03-29T05:44:23.110Z,100.00
2023-03-29T05:46:51.085Z,100.00
2023-03-29T05:49:18.953Z,100.00
2023-03-29T05:51:47.991Z,100.00
2023-03-29T05:54:16.427Z,100.00
2023-03-29T05:56:44.137Z,100.00
2023-03-29T05:59:11.827Z,100.00
2023-03-29T06:01:40.081Z,100.00
2023-03-29T06:04:08.348Z,100.00
2023-03-29T06:06:36.145Z,100.00
2023-03-29T06:09:05.810Z,100.00
2023-03-29T06:11:34.897Z,100.00
2023-03-29T06:14:03.520Z,100.00
2023-03-29T06:16:32.400Z,100.00
2023-03-29T06:19:00.436Z,100.00
2023-03-29T06:21:28.486Z,100.00
2023-03-29T06:23:56.165Z,100.00
2023-03-29T06:26:25.281Z,100.00
2023-03-29T06:28:52.974Z,100.00
2023-03-29T06:31:21.021Z,100.00
2023-03-29T06:33:49.434Z,100.00
2023-03-29T06:36:17.258Z,100.00
2023-03-29T06:38:45.911Z,100.00
2023-03-29T06:41:13.662Z,100.00
2023-03-29T06:43:43.150Z,100.00
2023-03-29T06:46:12.267Z,100.00
2023-03-29T06:48:40.944Z,100.00
2023-03-29T06:51:08.816Z,100.00
2023-03-29T06:53:36.676Z,100.00
2023-03-29T06:56:09.115Z,100.00
2023-03-29T06:58:37.549Z,100.00
2023-03-29T07:01:07.531Z,100.00
2023-03-29T07:03:36.321Z,100.00
2023-03-29T07:06:09.874Z,100.00
2023-03-29T07:08:43.324Z,100.00
2023-03-29T07:11:13.179Z,100.00
2023-03-29T07:13:42.458Z,100.00
2023-03-29T07:16:13.821Z,100.00
2023-03-29T07:18:42.814Z,100.00
2023-03-29T07:21:12.314Z,100.00
2023-03-29T07:23:40.666Z,100.00
2023-03-29T07:26:09.047Z,100.00
2023-03-29T07:28:37.920Z,100.00
2023-03-29T07:31:06.971Z,100.00
2023-03-29T07:33:36.548Z,100.00
2023-03-29T07:36:04.847Z,100.00
2023-03-29T07:38:32.657Z,100.00
2023-03-29T07:41:00.994Z,100.00
2023-03-29T07:43:29.053Z,100.00
2023-03-29T07:45:59.057Z,100.00
2023-03-29T07:48:27.129Z,100.00
2023-03-29T07:50:56.746Z,100.00
2023-03-29T07:53:25.221Z,100.00
2023-03-29T07:55:54.754Z,100.00
2023-03-29T07:58:22.744Z,100.00
2023-03-29T08:00:50.723Z,100.00
2023-03-29T08:03:18.650Z,100.00
2023-03-29T08:05:47.397Z,100.00
2023-03-29T08:08:16.473Z,100.00
2023-03-29T08:10:44.548Z,100.00
2023-03-29T08:13:12.498Z,100.00
2023-03-29T08:15:45.416Z,100.00
2023-03-29T08:18:13.214Z,100.00
2023-03-29T08:20:41.027Z,100.00
2023-03-29T08:23:08.688Z,100.00
2023-03-29T08:25:38.213Z,100.00
2023-03-29T08:28:05.983Z,100.00
2023-03-29T08:30:33.938Z,100.00
2023-03-29T08:33:01.763Z,100.00
2023-03-29T08:35:29.494Z,100.00
2023-03-29T08:37:57.501Z,100.00
2023-03-29T08:40:30.022Z,100.00
2023-03-29T08:43:22.087Z,100.00
2023-03-29T08:46:02.474Z,100.00
2023-03-29T08:48:32.925Z,100.00
2023-03-29T08:51:07.966Z,100.00
2023-03-29T08:53:44.161Z,100.00
2023-03-29T08:56:16.036Z,100.00
2023-03-29T08:58:47.098Z,100.00
2023-03-29T09:01:15.267Z,100.00
2023-03-29T09:03:48.424Z,100.00
2023-03-29T09:06:17.556Z,100.00
2023-03-29T09:08:47.826Z,100.00
2023-03-29T09:11:33.360Z,100.00
2023-03-29T09:14:18.168Z,100.00
2023-03-29T09:16:56.144Z,100.00
2023-03-29T09:19:33.810Z,100.00
2023-03-29T09:22:14.020Z,100.00
2023-03-29T09:24:54.629Z,100.00
2023-03-29T09:27:27.612Z,100.00
2023-03-29T09:30:06.164Z,100.00
2023-03-29T09:32:45.291Z,100.00
2023-03-29T09:35:18.606Z,100.00
2023-03-29T09:37:48.772Z,100.00
2023-03-29T09:40:20.557Z,100.00
2023-03-29T09:42:52.011Z,100.00
2023-03-29T09:45:21.158Z,100.00
2023-03-29T09:47:52.865Z,100.00
2023-03-29T09:50:31.382Z,100.00
2023-03-29T09:53:00.593Z,100.00
2023-03-29T09:55:31.104Z,100.00
2023-03-29T09:58:01.703Z,100.00
2023-03-29T10:00:30.981Z,100.00
2023-03-29T10:03:00.306Z,100.00
2023-03-29T10:05:31.996Z,100.00
2023-03-29T10:08:02.108Z,100.00
2023-03-29T10:10:32.436Z,100.00
2023-03-29T10:13:02.183Z,100.00
2023-03-29T10:15:32.614Z,100.00
2023-03-29T10:18:03.144Z,100.00
2023-03-29T10:20:31.066Z,100.00
2023-03-29T10:22:59.982Z,100.00
2023-03-29T10:25:31.301Z,100.00
2023-03-29T10:28:05.120Z,100.00
2023-03-29T10:30:37.216Z,100.00
2023-03-29T10:33:05.364Z,100.00
2023-03-29T10:35:35.647Z,100.00
2023-03-29T10:38:07.818Z,100.00
2023-03-29T10:40:42.455Z,100.00
2023-03-29T10:43:15.810Z,100.00
2023-03-29T10:45:48.864Z,100.00
2023-03-29T10:48:19.295Z,100.00
2023-03-29T10:50:50.775Z,100.00
2023-03-29T10:53:27.626Z,100.00
2023-03-29T10:56:07.846Z,100.00
2023-03-29T10:58:46.090Z,100.00
2023-03-29T11:01:19.336Z,100.00
2023-03-29T11:04:08.743Z,100.00
2023-03-29T11:06:41.138Z,100.00
2023-03-29T11:09:21.476Z,100.00
2023-03-29T11:12:14.460Z,100.00
2023-03-29T11:14:53.795Z,97.91
2023-03-29T11:17:39.345Z,99.13
2023-03-29T11:20:21.598Z,95.08
2023-03-29T11:22:57.970Z,92.79
2023-03-29T11:25:35.976Z,85.77
2023-03-29T11:28:12.074Z,86.20
2023-03-29T11:30:46.129Z,87.31
2023-03-29T11:33:25.183Z,84.09
2023-03-29T11:36:01.649Z,85.33
2023-03-29T11:38:34.810Z,85.14
2023-03-29T11:41:06.564Z,83.19
2023-03-29T11:43:37.615Z,82.59
2023-03-29T11:46:13.406Z,85.41
2023-03-29T11:48:49.411Z,88.59
2023-03-29T11:51:22.524Z,87.06
2023-03-29T11:53:57.391Z,81.36
2023-03-29T11:56:29.356Z,76.82
2023-03-29T11:59:04.669Z,75.83
2023-03-29T12:01:37.616Z,74.49
2023-03-29T12:04:14.263Z,77.43
2023-03-29T12:06:48.672Z,74.04
2023-03-29T12:09:27.350Z,75.47
2023-03-29T12:12:03.019Z,69.32
2023-03-29T12:14:43.458Z,68.62
2023-03-29T12:17:15.636Z,66.98
2023-03-29T12:19:50.659Z,67.25
2023-03-29T12:22:18.951Z,69.00
2023-03-29T12:24:49.161Z,66.69
2023-03-29T12:27:27.129Z,70.03
2023-03-29T12:30:25.287Z,68.18
2023-03-29T12:33:15.313Z,69.75
2023-03-29T12:35:59.161Z,70.62
2023-03-29T12:38:30.848Z,68.37
2023-03-29T12:41:02.011Z,69.12
2023-03-29T12:43:32.930Z,72.32
2023-03-29T12:46:07.908Z,70.47
2023-03-29T12:48:41.478Z,72.15
2023-03-29T12:51:15.371Z,72.29
2023-03-29T12:53:46.914Z,70.20
2023-03-29T12:56:17.056Z,70.26
2023-03-29T12:58:54.702Z,69.31
2023-03-29T13:01:31.122Z,68.04
2023-03-29T13:04:18.357Z,67.64
2023-03-29T13:07:03.095Z,67.85
2023-03-29T13:09:35.479Z,65.86
2023-03-29T13:12:20.480Z,62.24
2023-03-29T13:14:53.985Z,60.05
2023-03-29T13:17:27.644Z,59.66
2023-03-29T13:20:12.443Z,60.09
2023-03-29T13:22:52.553Z,59.96
2023-03-29T13:25:42.187Z,59.79
2023-03-29T13:28:21.685Z,59.83
2023-03-29T13:30:58.813Z,60.32
2023-03-29T13:33:46.148Z,58.39
2023-03-29T13:36:22.530Z,61.10
2023-03-29T13:38:58.413Z,59.36
2023-03-29T13:41:33.932Z,60.30
2023-03-29T13:44:02.558Z,52.40
2023-03-29T13:46:40.772Z,52.76
2023-03-29T13:49:16.803Z,51.16
2023-03-29T13:52:01.271Z,50.56
2023-03-29T13:54:36.554Z,51.02
2023-03-29T13:57:10.060Z,51.82
2023-03-29T13:59:49.161Z,52.71
2023-03-29T14:02:23.574Z,53.16
2023-03-29T14:04:53.732Z,54.50
2023-03-29T14:07:26.362Z,54.95
2023-03-29T14:09:58.629Z,57.18
2023-03-29T14:12:32.977Z,58.25
2023-03-29T14:15:04.996Z,58.54
2023-03-29T14:17:35.056Z,60.21
2023-03-29T14:20:09.039Z,60.25
2023-03-29T14:22:37.382Z,60.35
2023-03-29T14:25:16.066Z,66.96
2023-03-29T14:27:44.282Z,62.11
2023-03-29T14:30:21.686Z,61.01
2023-03-29T14:32:51.117Z,61.71
2023-03-29T14:35:19.968Z,62.44
2023-03-29T14:37:49.672Z,61.87
2023-03-29T14:40:20.883Z,63.52
2023-03-29T14:42:50.881Z,64.71
2023-03-29T14:45:23.258Z,65.86
2023-03-29T14:47:52.713Z,65.70
2023-03-29T14:50:25.066Z,67.14
2023-03-29T14:52:53.721Z,68.51
2023-03-29T14:55:24.832Z,69.21
2023-03-29T14:57:55.690Z,70.51
2023-03-29T15:00:28.159Z,74.48
2023-03-29T15:02:59.080Z,76.46
2023-03-29T15:05:33.714Z,80.42
2023-03-29T15:08:02.681Z,88.08
2023-03-29T15:10:35.068Z,97.86
2023-03-29T15:13:04.756Z,100.00
2023-03-29T15:15:34.890Z,100.00
2023-03-29T15:18:04.180Z,100.00
2023-03-29T15:20:35.581Z,100.00
2023-03-29T15:23:05.158Z,100.00
2023-03-29T15:25:39.368Z,100.00
2023-03-29T15:28:07.590Z,100.00
2023-03-29T15:30:37.188Z,100.00
2023-03-29T15:33:21.980Z,100.00
2023-03-29T15:35:52.267Z,100.00
2023-03-29T15:38:25.445Z,100.00
2023-03-29T15:41:00.305Z,100.00
2023-03-29T15:43:28.262Z,100.00
2023-03-29T15:45:56.030Z,100.00
2023-03-29T15:48:25.665Z,100.00
2023-03-29T15:50:58.974Z,100.00
2023-03-29T15:53:28.796Z,100.00
2023-03-29T15:56:02.548Z,100.00
2023-03-29T15:58:33.382Z,100.00
2023-03-29T16:01:11.172Z,100.00
2023-03-29T16:03:39.314Z,100.00
2023-03-29T16:06:10.677Z,100.00
2023-03-29T16:08:38.534Z,100.00
2023-03-29T16:11:08.231Z,100.00
2023-03-29T16:13:37.642Z,100.00
2023-03-29T16:16:06.398Z,100.00
2023-03-29T16:18:35.289Z,100.00
2023-03-29T16:21:03.298Z,100.00
2023-03-29T16:23:30.986Z,100.00
2023-03-29T16:26:02.481Z,100.00
2023-03-29T16:28:31.767Z,100.00
2023-03-29T16:31:00.156Z,100.00
2023-03-29T16:33:27.904Z,100.00
2023-03-29T16:35:56.137Z,100.00
2023-03-29T16:38:24.382Z,100.00
2023-03-29T16:40:52.584Z,100.00
2023-03-29T16:43:20.306Z,100.00
2023-03-29T16:45:49.392Z,100.00
2023-03-29T16:48:19.470Z,100.00
2023-03-29T16:50:49.246Z,100.00
2023-03-29T16:53:18.299Z,100.00
2023-03-29T16:55:46.337Z,100.00
2023-03-29T16:58:16.514Z,100.00
2023-03-29T17:00:47.248Z,100.00
2023-03-29T17:03:17.264Z,100.00
2023-03-29T17:05:49.883Z,100.00
2023-03-29T17:08:17.682Z,100.00
2023-03-29T17:10:45.535Z,100.00
2023-03-29T17:13:13.910Z,100.00
2023-03-29T17:15:41.658Z,100.00
2023-03-29T17:18:09.581Z,100.00
2023-03-29T17:20:41.071Z,100.00
2023-03-29T17:23:09.375Z,100.00
2023-03-29T17:25:37.310Z,100.00
2023-03-29T17:28:05.673Z,100.00
2023-03-29T17:30:34.777Z,100.00
2023-03-29T17:33:02.616Z,100.00
2023-03-29T17:35:30.387Z,100.00
2023-03-29T17:38:00.432Z,100.00
2023-03-29T17:40:28.350Z,100.00
2023-03-29T17:42:56.095Z,100.00
2023-03-29T17:45:23.807Z,100.00
2023-03-29T17:47:51.529Z,100.00
2023-03-29T17:50:19.565Z,100.00
2023-03-29T17:52:47.315Z,100.00
2023-03-29T17:55:16.681Z,100.00
2023-03-29T17:57:44.877Z,100.00
2023-03-29T18:00:14.870Z,100.00
2023-03-29T18:02:42.688Z,100.00
2023-03-29T18:05:10.871Z,100.00
2023-03-29T18:07:38.829Z,100.00
2023-03-29T18:10:08.676Z,100.00
2023-03-29T18:12:37.746Z,100.00
2023-03-29T18:15:09.085Z,100.00
2023-03-29T18:17:37.090Z,100.00
2023-03-29T18:20:09.848Z,100.00
2023-03-29T18:22:37.883Z,100.00
2023-03-29T18:25:07.283Z,100.00
2023-03-29T18:27:35.458Z,100.00
2023-03-29T18:30:06.384Z,100.00
2023-03-29T18:32:34.256Z,100.00
2023-03-29T18:35:02.700Z,100.00
2023-03-29T18:37:30.364Z,100.00
2023-03-29T18:39:58.047Z,100.00
2023-03-29T18:42:25.806Z,100.00
2023-03-29T18:44:53.457Z,100.00
2023-03-29T18:47:22.598Z,100.00
2023-03-29T18:49:54.566Z,100.00
2023-03-29T18:52:25.184Z,100.00
2023-03-29T18:54:52.885Z,100.00
2023-03-29T18:57:21.040Z,100.00
2023-03-29T18:59:48.987Z,100.00
2023-03-29T19:02:16.815Z,100.00
2023-03-29T19:04:46.065Z,100.00
2023-03-29T19:07:20.460Z,100.00
2023-03-29T19:09:48.201Z,100.00
2023-03-29T19:12:16.008Z,100.00
2023-03-29T19:14:43.738Z,100.00
2023-03-29T19:17:11.486Z,100.00
2023-03-29T19:19:39.386Z,100.00
2023-03-29T19:22:08.545Z,100.00
2023-03-29T19:24:36.293Z,100.00
2023-03-29T19:27:04.111Z,100.00
2023-03-29T19:29:31.867Z,100.00
2023-03-29T19:31:59.647Z,100.00
2023-03-29T19:34:27.561Z,100.00
2023-03-29T19:36:55.448Z,100.00
2023-03-29T19:39:26.669Z,100.00
2023-03-29T19:41:55.713Z,100.00
2023-03-29T19:44:24.462Z,100.00
2023-03-29T19:46:52.891Z,100.00
2023-03-29T19:49:20.659Z,100.00
2023-03-29T19:51:48.948Z,100.00
2023-03-29T19:54:17.316Z,100.00
2023-03-29T19:56:46.547Z,100.00
2023-03-29T19:59:15.117Z,100.00
2023-03-29T20:01:50.734Z,100.00
2023-03-29T20:04:19.301Z,100.00
2023-03-29T20:06:47.436Z,100.00
2023-03-29T20:09:16.042Z,100.00
2023-03-29T20:11:44.652Z,100.00
2023-03-29T20:14:13.713Z,100.00
2023-03-29T20:16:42.593Z,100.00
2023-03-29T20:19:10.674Z,100.00
2023-03-29T20:21:38.374Z,100.00
2023-03-29T20:24:08.548Z,100.00
2023-03-29T20:26:37.254Z,100.00
2023-03-29T20:29:04.940Z,100.00
2023-03-29T20:31:34.088Z,100.00
2023-03-29T20:34:01.900Z,100.00
2023-03-29T20:36:31.072Z,100.00
2023-03-29T20:39:00.229Z,100.00
2023-03-29T20:41:28.066Z,100.00
2023-03-29T20:43:59.637Z,100.00
2023-03-29T20:46:33.356Z,100.00
2023-03-29T20:49:04.563Z,100.00
2023-03-29T20:51:32.874Z,100.00
2023-03-29T20:54:04.381Z,100.00
2023-03-29T20:56:32.738Z,100.00
2023-03-29T20:59:00.391Z,100.00
2023-03-29T21:01:29.547Z,100.00
2023-03-29T21:03:57.456Z,100.00
2023-03-29T21:06:26.516Z,100.00
2023-03-29T21:08:54.414Z,100.00
2023-03-29T21:11:22.166Z,100.00
2023-03-29T21:13:49.827Z,100.00
2023-03-29T21:16:17.593Z,100.00
2023-03-29T21:18:45.376Z,100.00
2023-03-29T21:21:13.638Z,100.00
2023-03-29T21:23:42.659Z,100.00
2023-03-29T21:26:10.384Z,100.00
2023-03-29T21:28:38.522Z,100.00
2023-03-29T21:31:07.058Z,100.00
2023-03-29T21:33:35.460Z,100.00
2023-03-29T21:36:03.512Z,100.00
2023-03-29T21:38:31.246Z,100.00
2023-03-29T21:41:00.934Z,100.00
2023-03-29T21:43:28.750Z,100.00
2023-03-29T21:45:57.582Z,100.00
2023-03-29T21:48:25.320Z,100.00
2023-03-29T21:50:53.009Z,100.00
2023-03-29T21:53:20.838Z,100.00
2023-03-29T21:55:49.310Z,100.00
2023-03-29T21:58:18.996Z,100.00
2023-03-29T22:00:47.945Z,100.00
2023-03-29T22:03:16.438Z,100.00
2023-03-29T22:05:44.929Z,100.00
2023-03-29T22:08:12.776Z,100.00
2023-03-29T22:10:41.629Z,100.00
2023-03-29T22:13:09.583Z,100.00
2023-03-29T22:15:38.924Z,100.00
2023-03-29T22:18:08.297Z,100.00
2023-03-29T22:20:36.197Z,100.00
2023-03-29T22:23:04.727Z,100.00
2023-03-29T22:25:32.548Z,100.00
2023-03-29T22:28:00.436Z,100.00
2023-03-29T22:30:28.184Z,100.00
2023-03-29T22:32:57.315Z,100.00
2023-03-29T22:35:25.118Z,100.00
2023-03-29T22:37:52.820Z,100.00
2023-03-29T22:40:20.729Z,100.00
2023-03-29T22:42:48.419Z,100.00
2023-03-29T22:45:16.236Z,100.00
2023-03-29T22:47:44.075Z,100.00
2023-03-29T22:50:13.339Z,100.00
2023-03-29T22:52:41.029Z,100.00
2023-03-29T22:59:39.850Z,100.00
2023-03-29T23:02:07.889Z,100.00
2023-03-29T23:04:36.620Z,100.00
2023-03-29T23:07:04.315Z,100.00
2023-03-29T23:09:32.434Z,100.00
2023-03-29T23:12:01.109Z,100.00
2023-03-29T23:14:28.839Z,100.00
2023-03-29T23:16:58.209Z,100.00
2023-03-29T23:19:25.899Z,100.00
2023-03-29T23:21:55.099Z,100.00
2023-03-29T23:24:22.908Z,100.00
2023-03-29T23:26:50.627Z,100.00
2023-03-29T23:29:18.374Z,100.00
2023-03-29T23:31:47.721Z,100.00
2023-03-29T23:34:16.863Z,100.00
2023-03-29T23:36:44.536Z,100.00
2023-03-29T23:39:12.172Z,100.00
2023-03-29T23:41:40.139Z,100.00
2023-03-29T23:44:07.911Z,100.00
2023-03-29T23:46:38.846Z,100.00
2023-03-29T23:49:06.568Z,100.00
2023-03-29T23:51:36.787Z,100.00
2023-03-29T23:54:05.116Z,100.00
2023-03-29T23:56:32.804Z,100.00
2023-03-29T23:59:01.404Z,100.00
